createdAt,value
2018-05-14T00:01:56.777Z,129.10
2018-05-14T00:04:24.413Z,124.83
2018-05-14T00:06:52.117Z,117.37
2018-05-14T00:09:19.725Z,120.20
2018-05-14T00:11:47.479Z,130.47
2018-05-14T00:14:15.088Z,124.17
2018-05-14T00:16:42.758Z,127.53
2018-05-14T00:19:10.362Z,133.33
2018-05-14T00:21:38.092Z,128.33
2018-05-14T00:24:05.818Z,133.80
2018-05-14T00:26:33.458Z,129.93
2018-05-14T00:29:01.198Z,123.13
2018-05-14T00:31:28.949Z,127.07
2018-05-14T00:33:56.733Z,135.40
2018-05-14T00:36:24.345Z,132.67
2018-05-14T00:38:52.000Z,126.43
2018-05-14T00:41:19.813Z,129.83
2018-05-14T00:43:47.534Z,127.57
2018-05-14T00:46:15.166Z,123.80
2018-05-14T00:48:42.810Z,130.93
2018-05-14T00:51:10.444Z,120.70
2018-05-14T00:53:38.098Z,121.33
2018-05-14T00:56:05.717Z,126.80
2018-05-14T00:58:33.400Z,109.63
2018-05-14T01:01:01.012Z,125.87
2018-05-14T01:03:28.643Z,122.03
2018-05-14T01:05:56.278Z,125.23
2018-05-14T01:08:23.883Z,116.07
2018-05-14T01:10:51.537Z,126.07
2018-05-14T01:13:19.286Z,130.13
2018-05-14T01:15:46.928Z,135.13
2018-05-14T01:18:14.550Z,129.77
2018-05-14T01:20:42.180Z,125.70
2018-05-14T01:23:09.804Z,120.33
2018-05-14T01:25:37.445Z,119.53
2018-05-14T01:28:05.092Z,135.73
2018-05-14T01:30:32.720Z,122.60
2018-05-14T01:33:00.344Z,129.57
2018-05-14T01:35:28.006Z,122.23
2018-05-14T01:37:55.635Z,136.50
2018-05-14T01:40:23.237Z,119.03
2018-05-14T01:42:50.917Z,123.40
2018-05-14T01:45:20.205Z,145.13
2018-05-14T01:47:48.825Z,135.90
2018-05-14T01:50:16.644Z,135.93
2018-05-14T01:52:44.401Z,125.77
2018-05-14T01:55:12.164Z,125.80
2018-05-14T01:57:39.797Z,129.60
2018-05-14T02:00:07.408Z,128.57
2018-05-14T02:02:35.096Z,122.83
2018-05-14T02:05:02.724Z,123.57
2018-05-14T02:07:30.409Z,132.83
2018-05-14T02:09:58.010Z,135.77
2018-05-14T02:12:25.657Z,135.17
2018-05-14T02:14:53.263Z,124.73
2018-05-14T02:17:20.916Z,127.53
2018-05-14T02:19:48.524Z,127.87
2018-05-14T02:22:16.276Z,112.80
2018-05-14T02:24:43.937Z,127.50
2018-05-14T02:27:11.540Z,116.80
2018-05-14T02:29:39.201Z,132.30
2018-05-14T02:32:06.809Z,139.33
2018-05-14T02:34:34.456Z,136.73
2018-05-14T02:37:02.081Z,132.47
2018-05-14T02:39:29.717Z,138.20
2018-05-14T02:41:57.314Z,151.17
2018-05-14T02:44:25.130Z,147.97
2018-05-14T02:46:52.752Z,139.73
2018-05-14T02:49:20.420Z,161.37
2018-05-14T02:51:48.073Z,151.60
2018-05-14T02:54:15.816Z,152.83
2018-05-14T02:56:43.487Z,163.73
2018-05-14T02:59:11.160Z,154.53
2018-05-14T03:01:38.777Z,157.70
2018-05-14T03:04:06.421Z,142.67
2018-05-14T03:06:34.058Z,144.43
2018-05-14T03:09:01.701Z,131.17
2018-05-14T03:11:29.350Z,142.97
2018-05-14T03:13:57.110Z,137.90
2018-05-14T03:16:24.793Z,125.70
2018-05-14T03:18:52.400Z,131.87
2018-05-14T03:21:20.088Z,128.57
2018-05-14T03:23:47.746Z,141.90
2018-05-14T03:26:15.413Z,131.30
2018-05-14T03:28:43.037Z,130.47
2018-05-14T03:31:10.761Z,130.87
2018-05-14T03:33:38.486Z,133.53
2018-05-14T03:36:06.116Z,140.23
2018-05-14T03:38:33.717Z,145.33
2018-05-14T03:41:01.357Z,132.60
2018-05-14T03:43:28.972Z,135.90
2018-05-14T03:45:56.754Z,134.67
2018-05-14T03:48:24.390Z,127.73
2018-05-14T03:50:51.996Z,133.10
2018-05-14T03:53:19.663Z,127.17
2018-05-14T03:55:47.331Z,127.17
2018-05-14T03:58:26.691Z,124.30
2018-05-14T04:01:05.954Z,124.37
2018-05-14T04:06:46.979Z,119.17
2018-05-14T04:09:14.620Z,106.50
2018-05-14T04:11:42.233Z,99.93
2018-05-14T04:14:09.881Z,103.67
2018-05-14T04:16:37.607Z,105.20
2018-05-14T04:19:05.228Z,105.03
2018-05-14T04:21:32.860Z,102.77
2018-05-14T04:24:00.584Z,100.30
2018-05-14T04:26:28.179Z,102.53
2018-05-14T04:28:55.855Z,104.13
2018-05-14T04:31:23.556Z,94.73
2018-05-14T04:33:51.358Z,90.93
2018-05-14T04:36:19.084Z,100.00
2018-05-14T04:38:46.745Z,90.83
2018-05-14T04:41:14.363Z,82.23
2018-05-14T04:43:42.059Z,81.13
2018-05-14T04:46:09.694Z,82.10
2018-05-14T04:48:37.338Z,82.20
2018-05-14T04:51:04.954Z,80.60
2018-05-14T04:53:32.609Z,82.40
2018-05-14T04:56:00.376Z,85.63
2018-05-14T04:58:28.080Z,76.53
2018-05-14T05:00:55.740Z,86.70
2018-05-14T05:03:23.332Z,77.47
2018-05-14T05:05:50.985Z,80.60
2018-05-14T05:08:18.683Z,75.43
2018-05-14T05:10:46.357Z,74.57
2018-05-14T05:13:13.980Z,70.67
2018-05-14T05:15:41.632Z,76.67
2018-05-14T05:18:09.327Z,75.40
2018-05-14T05:20:36.916Z,73.63
2018-05-14T05:23:04.533Z,74.73
2018-05-14T05:25:32.192Z,77.93
2018-05-14T05:27:59.816Z,72.13
2018-05-14T05:30:27.460Z,71.63
2018-05-14T05:32:55.096Z,77.30
2018-05-14T05:35:22.732Z,73.30
2018-05-14T05:37:50.393Z,71.97
2018-05-14T05:40:18.000Z,73.90
2018-05-14T05:42:45.679Z,78.70
2018-05-14T05:45:13.494Z,72.80
2018-05-14T05:47:41.131Z,77.27
2018-05-14T05:50:08.827Z,78.23
2018-05-14T05:52:36.464Z,75.00
2018-05-14T05:55:04.080Z,78.17
2018-05-14T05:57:31.732Z,76.10
2018-05-14T05:59:59.329Z,75.87
2018-05-14T06:02:27.057Z,73.40
2018-05-14T06:04:54.717Z,69.50
2018-05-14T06:07:22.412Z,75.53
2018-05-14T06:09:50.037Z,76.27
2018-05-14T06:12:17.787Z,78.87
2018-05-14T06:14:45.445Z,81.60
2018-05-14T06:17:13.157Z,86.80
2018-05-14T06:19:40.782Z,78.63
2018-05-14T06:22:08.418Z,80.30
2018-05-14T06:24:36.127Z,75.43
2018-05-14T06:27:03.878Z,84.07
2018-05-14T06:29:31.729Z,83.80
2018-05-14T06:31:59.352Z,84.73
2018-05-14T06:34:27.006Z,82.30
2018-05-14T06:36:54.612Z,80.40
2018-05-14T06:39:22.256Z,80.73
2018-05-14T06:41:49.901Z,89.57
2018-05-14T06:44:17.693Z,86.10
2018-05-14T06:46:45.286Z,86.70
2018-05-14T06:49:12.945Z,75.90
2018-05-14T06:51:40.561Z,78.33
2018-05-14T06:54:08.297Z,71.63
2018-05-14T06:56:35.905Z,77.17
2018-05-14T06:59:03.540Z,75.43
2018-05-14T07:01:31.289Z,76.80
2018-05-14T07:03:58.913Z,83.17
2018-05-14T07:06:27.540Z,74.90
2018-05-14T07:08:55.188Z,78.67
2018-05-14T07:11:22.849Z,69.30
2018-05-14T07:13:50.510Z,76.90
2018-05-14T07:16:18.145Z,67.27
2018-05-14T07:18:45.832Z,74.93
2018-05-14T07:21:13.708Z,66.03
2018-05-14T07:23:41.368Z,74.27
2018-05-14T07:26:09.088Z,67.40
2018-05-14T07:28:36.769Z,66.00
2018-05-14T07:31:04.415Z,68.50
2018-05-14T07:33:32.041Z,61.40
2018-05-14T07:35:59.676Z,65.03
2018-05-14T07:38:27.498Z,62.67
2018-05-14T07:40:55.412Z,61.57
2018-05-14T07:43:23.064Z,61.80
2018-05-14T07:45:50.743Z,68.17
2018-05-14T07:48:18.384Z,66.27
2018-05-14T07:50:46.016Z,64.77
2018-05-14T07:53:13.672Z,62.10
2018-05-14T07:55:41.445Z,61.70
2018-05-14T07:58:09.076Z,61.17
2018-05-14T08:00:36.711Z,58.87
2018-05-14T08:03:04.553Z,61.10
2018-05-14T08:05:32.201Z,66.03
2018-05-14T08:08:00.024Z,55.33
2018-05-14T08:10:27.867Z,63.53
2018-05-14T08:12:55.322Z,57.07
2018-05-14T08:15:22.939Z,50.00
2018-05-14T08:17:50.580Z,59.43
2018-05-14T08:20:18.312Z,54.77
2018-05-14T08:22:45.922Z,51.03
2018-05-14T08:25:13.565Z,48.77
2018-05-14T08:27:41.181Z,51.30
2018-05-14T08:30:08.838Z,47.37
2018-05-14T08:32:36.456Z,48.17
2018-05-14T08:35:04.081Z,51.07
2018-05-14T08:37:31.709Z,50.97
2018-05-14T08:39:59.357Z,49.57
2018-05-14T08:42:27.011Z,48.57
2018-05-14T08:44:54.941Z,46.53
2018-05-14T08:47:22.595Z,45.60
2018-05-14T08:49:50.462Z,46.00
2018-05-14T08:52:18.055Z,49.10
2018-05-14T08:54:45.745Z,47.67
2018-05-14T08:57:13.344Z,46.17
2018-05-14T08:59:41.228Z,46.33
2018-05-14T09:02:08.933Z,44.40
2018-05-14T09:04:36.553Z,44.87
2018-05-14T09:07:04.450Z,44.93
2018-05-14T09:09:32.113Z,43.73
2018-05-14T09:11:59.828Z,52.17
2018-05-14T09:14:27.458Z,46.80
2018-05-14T09:16:55.097Z,46.17
2018-05-14T09:19:22.802Z,44.43
2018-05-14T09:21:50.320Z,44.93
2018-05-14T09:24:17.937Z,47.07
2018-05-14T09:26:45.614Z,46.77
2018-05-14T09:29:13.258Z,45.40
2018-05-14T09:31:41.645Z,42.97
2018-05-14T09:34:09.257Z,44.57
2018-05-14T09:36:36.898Z,44.47
2018-05-14T09:39:04.513Z,43.87
2018-05-14T09:41:33.061Z,43.87
2018-05-14T09:44:00.787Z,45.53
2018-05-14T09:46:28.545Z,45.60
2018-05-14T09:48:57.485Z,45.30
2018-05-14T09:51:25.097Z,48.50
2018-05-14T09:53:52.852Z,44.27
2018-05-14T09:56:20.521Z,44.90
2018-05-14T09:58:48.344Z,46.90
2018-05-14T10:01:15.997Z,44.23
2018-05-14T10:03:43.630Z,44.40
2018-05-14T10:06:11.280Z,44.63
2018-05-14T10:08:39.029Z,45.97
2018-05-14T10:11:06.702Z,42.30
2018-05-14T10:13:34.304Z,45.83
2018-05-14T10:16:01.932Z,43.50
2018-05-14T10:18:29.557Z,45.70
2018-05-14T10:20:57.235Z,46.10
2018-05-14T10:23:24.836Z,42.50
2018-05-14T10:25:52.510Z,42.00
2018-05-14T10:28:20.116Z,42.47
2018-05-14T10:30:47.737Z,43.73
2018-05-14T10:33:15.341Z,45.80
2018-05-14T10:35:43.034Z,43.33
2018-05-14T10:38:10.659Z,43.77
2018-05-14T10:40:38.380Z,40.63
2018-05-14T10:43:05.892Z,38.80
2018-05-14T10:45:33.594Z,37.10
2018-05-14T10:48:01.200Z,37.70
2018-05-14T10:50:28.833Z,38.17
2018-05-14T10:52:56.539Z,38.67
2018-05-14T10:55:24.085Z,35.00
2018-05-14T10:57:51.720Z,35.50
2018-05-14T11:00:19.328Z,36.97
2018-05-14T11:02:46.961Z,33.97
2018-05-14T11:05:14.570Z,37.00
2018-05-14T11:07:42.209Z,39.40
2018-05-14T11:10:09.812Z,36.70
2018-05-14T11:12:37.440Z,32.80
2018-05-14T11:15:05.034Z,34.97
2018-05-14T11:17:32.664Z,37.23
2018-05-14T11:20:00.284Z,33.70
2018-05-14T11:22:27.944Z,34.70
2018-05-14T11:24:55.589Z,34.13
2018-05-14T11:27:23.368Z,32.10
2018-05-14T11:29:50.936Z,32.97
2018-05-14T11:32:18.569Z,30.83
2018-05-14T11:34:46.250Z,31.13
2018-05-14T11:37:13.859Z,30.23
2018-05-14T11:39:41.535Z,30.83
2018-05-14T11:42:09.133Z,27.57
2018-05-14T11:44:36.776Z,29.33
2018-05-14T11:47:04.385Z,27.93
2018-05-14T11:49:32.069Z,28.80
2018-05-14T11:51:59.680Z,28.77
2018-05-14T11:54:27.387Z,28.60
2018-05-14T11:56:54.989Z,26.43
2018-05-14T11:59:22.685Z,24.17
2018-05-14T12:01:50.309Z,26.17
2018-05-14T12:04:18.017Z,26.67
2018-05-14T12:06:45.784Z,24.07
2018-05-14T12:09:13.380Z,23.87
2018-05-14T12:11:41.068Z,21.30
2018-05-14T12:14:08.677Z,21.90
2018-05-14T12:16:36.324Z,21.07
2018-05-14T12:19:03.929Z,23.43
2018-05-14T12:21:31.601Z,20.67
2018-05-14T12:23:59.226Z,23.57
2018-05-14T12:26:26.877Z,20.17
2018-05-14T12:28:54.551Z,20.17
2018-05-14T12:31:22.228Z,20.60
2018-05-14T12:33:49.849Z,20.27
2018-05-14T12:36:17.473Z,17.93
2018-05-14T12:38:45.143Z,20.87
2018-05-14T12:41:12.756Z,19.67
2018-05-14T12:43:40.408Z,17.50
2018-05-14T12:46:08.028Z,15.43
2018-05-14T12:48:35.661Z,16.37
2018-05-14T12:51:03.265Z,16.20
2018-05-14T12:53:30.907Z,15.50
2018-05-14T12:55:58.584Z,13.73
2018-05-14T12:58:26.253Z,13.47
2018-05-14T13:00:54.025Z,13.83
2018-05-14T13:03:21.737Z,11.43
2018-05-14T13:05:49.436Z,13.70
2018-05-14T13:08:17.109Z,13.30
2018-05-14T13:10:44.744Z,13.50
2018-05-14T13:13:12.457Z,11.10
2018-05-14T13:15:40.043Z,12.03
2018-05-14T13:18:07.708Z,12.73
2018-05-14T13:20:35.348Z,11.07
2018-05-14T13:23:02.957Z,10.50
2018-05-14T13:25:30.705Z,11.57
2018-05-14T13:27:58.335Z,11.03
2018-05-14T13:30:26.051Z,12.70
2018-05-14T13:32:53.652Z,10.43
2018-05-14T13:35:21.274Z,10.57
2018-05-14T13:37:48.976Z,10.70
2018-05-14T13:40:16.532Z,10.20
2018-05-14T13:42:44.135Z,9.37
2018-05-14T13:45:11.774Z,9.90
2018-05-14T13:47:39.360Z,9.83
2018-05-14T13:50:07.095Z,10.13
2018-05-14T13:52:34.732Z,9.57
2018-05-14T13:55:02.363Z,8.57
2018-05-14T13:57:29.999Z,9.10
2018-05-14T13:59:57.637Z,8.40
2018-05-14T14:02:25.263Z,8.10
2018-05-14T14:04:52.975Z,7.90
2018-05-14T14:07:20.571Z,8.27
2018-05-14T14:09:48.316Z,8.50
2018-05-14T14:12:15.958Z,7.33
2018-05-14T14:14:43.585Z,8.23
2018-05-14T14:17:11.222Z,8.77
2018-05-14T14:19:38.852Z,8.10
2018-05-14T14:22:06.661Z,12.30
2018-05-14T14:24:34.271Z,7.80
2018-05-14T14:27:01.928Z,8.43
2018-05-14T14:29:29.581Z,7.87
2018-05-14T14:31:57.256Z,7.13
2018-05-14T14:34:24.868Z,9.03
2018-05-14T14:36:52.561Z,7.10
2018-05-14T14:39:20.156Z,6.60
2018-05-14T14:41:47.839Z,6.90
2018-05-14T14:44:15.397Z,5.97
2018-05-14T14:46:43.069Z,8.37
2018-05-14T14:49:10.799Z,8.83
2018-05-14T14:51:38.328Z,7.90
2018-05-14T14:54:06.046Z,7.40
2018-05-14T14:56:34.440Z,6.53
2018-05-14T14:59:02.146Z,6.60
2018-05-14T15:01:29.797Z,6.87
2018-05-14T15:03:57.559Z,6.67
2018-05-14T15:06:25.173Z,7.07
2018-05-14T15:08:52.815Z,6.00
2018-05-14T15:11:20.455Z,6.37
2018-05-14T15:13:48.128Z,6.80
2018-05-14T15:16:15.755Z,6.20
2018-05-14T15:18:43.508Z,11.50
2018-05-14T15:21:11.114Z,7.50
2018-05-14T15:23:38.887Z,7.03
2018-05-14T15:26:06.600Z,6.90
2018-05-14T15:28:34.228Z,5.90
2018-05-14T15:31:01.825Z,5.97
2018-05-14T15:33:29.433Z,6.67
2018-05-14T15:35:57.077Z,5.90
2018-05-14T15:38:24.722Z,7.17
2018-05-14T15:40:52.373Z,16.87
2018-05-14T15:43:19.985Z,6.87
2018-05-14T15:45:48.199Z,6.03
2018-05-14T15:48:15.795Z,6.33
2018-05-14T15:50:43.449Z,6.47
2018-05-14T15:53:11.069Z,6.57
2018-05-14T15:55:38.711Z,5.83
2018-05-14T15:58:06.320Z,5.27
2018-05-14T16:00:34.086Z,5.57
2018-05-14T16:03:01.686Z,10.30
2018-05-14T16:05:29.312Z,7.17
2018-05-14T16:07:56.945Z,7.90
2018-05-14T16:10:24.576Z,5.60
2018-05-14T16:12:52.182Z,7.93
2018-05-14T16:15:20.194Z,29.23
2018-05-14T16:17:47.826Z,7.13
2018-05-14T16:20:15.422Z,5.80
2018-05-14T16:22:43.065Z,5.50
2018-05-14T16:25:10.721Z,6.00
2018-05-14T16:27:38.372Z,5.93
2018-05-14T16:30:05.986Z,7.70
2018-05-14T16:32:33.642Z,5.27
2018-05-14T16:35:01.247Z,6.47
2018-05-14T16:37:28.860Z,6.23
2018-05-14T16:39:56.488Z,5.20
2018-05-14T16:42:24.141Z,4.90
2018-05-14T16:44:51.706Z,5.97
2018-05-14T16:47:19.364Z,10.77
2018-05-14T16:49:47.121Z,11.90
2018-05-14T16:52:14.798Z,6.50
2018-05-14T16:54:42.442Z,5.70
2018-05-14T16:57:10.290Z,10.00
2018-05-14T16:59:37.960Z,9.20
2018-05-14T17:02:05.714Z,5.93
2018-05-14T17:04:33.347Z,5.80
2018-05-14T17:07:00.933Z,5.80
2018-05-14T17:09:28.603Z,5.90
2018-05-14T17:11:56.256Z,10.10
2018-05-14T17:14:23.892Z,13.00
2018-05-14T17:16:51.492Z,6.70
2018-05-14T17:19:19.236Z,6.07
2018-05-14T17:21:46.836Z,5.00
2018-05-14T17:24:14.481Z,5.67
2018-05-14T17:26:42.189Z,5.83
2018-05-14T17:29:09.869Z,6.40
2018-05-14T17:31:37.533Z,5.87
2018-05-14T17:34:05.168Z,5.67
2018-05-14T17:36:32.799Z,6.93
2018-05-14T17:39:00.542Z,9.63
2018-05-14T17:41:28.145Z,5.57
2018-05-14T17:43:55.789Z,5.40
2018-05-14T17:46:23.379Z,5.50
2018-05-14T17:48:51.060Z,6.50
2018-05-14T17:51:18.761Z,5.57
2018-05-14T17:53:46.373Z,6.40
2018-05-14T17:56:14.018Z,7.20
2018-05-14T17:58:41.639Z,8.43
2018-05-14T18:01:09.281Z,5.57
2018-05-14T18:03:36.908Z,6.30
2018-05-14T18:06:04.563Z,6.07
2018-05-14T18:08:32.270Z,5.87
2018-05-14T18:11:00.029Z,5.70
2018-05-14T18:13:27.508Z,5.20
2018-05-14T18:15:55.874Z,5.13
2018-05-14T18:18:23.529Z,6.00
2018-05-14T18:20:51.537Z,5.67
2018-05-14T18:23:24.116Z,5.93
2018-05-14T18:25:57.378Z,5.60
2018-05-14T18:28:30.582Z,5.33
2018-05-14T18:31:08.301Z,5.87
2018-05-14T18:33:35.913Z,4.90
2018-05-14T18:36:03.513Z,5.23
2018-05-14T18:38:31.180Z,6.20
2018-05-14T18:40:58.783Z,6.07
2018-05-14T18:43:26.594Z,5.90
2018-05-14T18:45:54.213Z,6.37
2018-05-14T18:48:21.850Z,6.60
2018-05-14T18:50:49.468Z,7.00
2018-05-14T18:53:17.127Z,6.80
2018-05-14T18:55:44.740Z,8.63
2018-05-14T18:58:12.392Z,7.37
2018-05-14T19:00:40.070Z,7.97
2018-05-14T19:03:07.748Z,6.23
2018-05-14T19:05:35.336Z,8.13
2018-05-14T19:08:03.019Z,7.17
2018-05-14T19:10:36.261Z,9.10
2018-05-14T19:13:03.920Z,7.73
2018-05-14T19:15:37.033Z,7.17
2018-05-14T19:18:04.749Z,5.73
2018-05-14T19:20:32.397Z,6.87
2018-05-14T19:23:05.531Z,5.40
2018-05-14T19:25:33.138Z,7.13
2018-05-14T19:28:06.256Z,7.23
2018-05-14T19:30:33.883Z,8.00
2018-05-14T19:33:01.574Z,6.03
2018-05-14T19:35:34.826Z,69.63
2018-05-14T19:38:02.427Z,37.17
2018-05-14T19:40:35.540Z,11.30
2018-05-14T19:43:03.137Z,7.07
2018-05-14T19:45:30.774Z,7.33
2018-05-14T19:47:58.370Z,7.60
2018-05-14T19:50:26.047Z,7.40
2018-05-14T19:52:53.626Z,6.10
2018-05-14T19:55:21.264Z,7.13
2018-05-14T19:57:48.858Z,6.57
2018-05-14T20:00:16.517Z,6.90
2018-05-14T20:02:44.173Z,5.73
2018-05-14T20:05:11.810Z,6.60
2018-05-14T20:07:39.406Z,6.20
2018-05-14T20:10:07.089Z,6.97
2018-05-14T20:12:34.702Z,10.53
2018-05-14T20:15:02.365Z,6.50
2018-05-14T20:17:29.999Z,6.77
2018-05-14T20:19:57.640Z,7.13
2018-05-14T20:22:25.241Z,6.20
2018-05-14T20:24:52.909Z,6.47
2018-05-14T20:27:20.512Z,7.17
2018-05-14T20:29:48.130Z,6.40
2018-05-14T20:32:15.744Z,9.40
2018-05-14T20:34:43.346Z,7.10
2018-05-14T20:37:11.057Z,6.83
2018-05-14T20:39:38.610Z,7.27
2018-05-14T20:42:06.268Z,6.80
2018-05-14T20:44:33.906Z,6.70
2018-05-14T20:47:01.532Z,6.10
2018-05-14T20:49:29.148Z,6.87
2018-05-14T20:51:56.787Z,6.70
2018-05-14T20:54:24.408Z,6.67
2018-05-14T20:56:52.043Z,6.30
2018-05-14T20:59:19.645Z,6.33
2018-05-14T21:01:47.287Z,8.83
2018-05-14T21:04:14.892Z,10.57
2018-05-14T21:06:42.525Z,6.37
2018-05-14T21:09:10.240Z,6.80
2018-05-14T21:11:37.856Z,5.90
2018-05-14T21:14:05.494Z,5.70
2018-05-14T21:16:33.096Z,6.93
2018-05-14T21:19:00.729Z,5.80
2018-05-14T21:21:28.339Z,6.17
2018-05-14T21:23:55.996Z,7.10
2018-05-14T21:26:23.580Z,6.63
2018-05-14T21:28:51.213Z,6.10
2018-05-14T21:31:18.851Z,10.13
2018-05-14T21:33:46.484Z,6.57
2018-05-14T21:36:14.124Z,6.20
2018-05-14T21:38:41.810Z,6.43
2018-05-14T21:41:09.414Z,5.93
2018-05-14T21:43:37.056Z,6.40
2018-05-14T21:46:04.662Z,6.07
2018-05-14T21:48:32.544Z,5.60
2018-05-14T21:51:00.129Z,5.97
2018-05-14T21:53:27.816Z,8.10
2018-05-14T21:55:55.453Z,7.37
2018-05-14T21:58:23.045Z,7.20
2018-05-14T22:00:50.791Z,7.28
2018-05-14T22:03:18.393Z,5.83
2018-05-14T22:05:50.964Z,6.13
2018-05-14T22:08:18.599Z,5.33
2018-05-14T22:10:46.250Z,6.30
2018-05-14T22:13:14.009Z,6.53
2018-05-14T22:15:41.628Z,6.07
2018-05-14T22:18:09.245Z,6.80
2018-05-14T22:20:36.882Z,6.67
2018-05-14T22:23:04.573Z,5.93
2018-05-14T22:25:32.319Z,10.50
2018-05-14T22:27:59.855Z,7.60
2018-05-14T22:30:27.579Z,5.80
2018-05-14T22:32:55.168Z,6.30
2018-05-14T22:35:22.813Z,5.87
2018-05-14T22:37:50.588Z,6.10
2018-05-14T22:40:18.214Z,6.37
2018-05-14T22:42:45.829Z,5.77
2018-05-14T22:45:13.468Z,6.20
2018-05-14T22:47:41.073Z,6.47
2018-05-14T22:50:08.791Z,5.80
2018-05-14T22:52:36.550Z,27.62
2018-05-14T22:55:04.150Z,6.13
2018-05-14T22:57:31.801Z,5.87
2018-05-14T22:59:59.486Z,6.00
2018-05-14T23:02:27.340Z,7.93
2018-05-14T23:04:54.993Z,5.50
2018-05-14T23:07:22.720Z,6.03
2018-05-14T23:09:50.343Z,5.70
2018-05-14T23:12:17.981Z,6.33
2018-05-14T23:14:45.578Z,5.83
2018-05-14T23:17:13.233Z,8.17
2018-05-14T23:19:40.946Z,6.23
2018-05-14T23:22:08.551Z,6.53
2018-05-14T23:24:36.143Z,7.40
2018-05-14T23:27:03.796Z,5.63
2018-05-14T23:29:31.408Z,6.03
2018-05-14T23:31:59.139Z,6.77
2018-05-14T23:34:26.727Z,5.77
2018-05-14T23:36:54.312Z,6.50
2018-05-14T23:39:21.936Z,5.37
2018-05-14T23:41:49.549Z,5.70
2018-05-14T23:44:17.204Z,5.43
2018-05-14T23:46:44.853Z,5.33
2018-05-14T23:49:12.492Z,5.67
2018-05-14T23:51:40.092Z,5.97
2018-05-14T23:54:07.755Z,7.03
2018-05-14T23:56:35.362Z,6.40
2018-05-14T23:59:02.960Z,6.00
